createdAt,value
2019-02-21T00:02:12.333Z,9.20
2019-02-21T00:04:40.834Z,9.19
2019-02-21T00:07:09.330Z,9.19
2019-02-21T00:09:41.112Z,9.18
2019-02-21T00:12:09.562Z,9.20
2019-02-21T00:14:38.004Z,9.22
2019-02-21T00:17:06.463Z,9.22
2019-02-21T00:19:35.453Z,9.22
2019-02-21T00:22:03.933Z,9.21
2019-02-21T00:24:32.382Z,9.21
2019-02-21T00:27:00.953Z,9.20
2019-02-21T00:29:29.406Z,9.21
2019-02-21T00:31:57.868Z,9.21
2019-02-21T00:34:26.378Z,9.18
2019-02-21T00:36:54.863Z,9.19
2019-02-21T00:39:23.310Z,9.20
2019-02-21T00:41:51.760Z,9.20
2019-02-21T00:44:20.210Z,9.19
2019-02-21T00:46:48.667Z,9.17
2019-02-21T00:49:17.115Z,9.16
2019-02-21T00:51:45.551Z,9.16
2019-02-21T00:54:14.023Z,9.13
2019-02-21T00:56:42.454Z,9.10
2019-02-21T00:59:10.887Z,9.05
2019-02-21T01:01:39.724Z,9.05
2019-02-21T01:04:08.243Z,9.06
2019-02-21T01:06:36.789Z,9.05
2019-02-21T01:09:06.378Z,9.06
2019-02-21T01:11:34.823Z,9.05
2019-02-21T01:14:03.471Z,9.05
2019-02-21T01:16:31.979Z,9.06
2019-02-21T01:19:00.502Z,9.07
2019-02-21T01:21:28.932Z,9.07
2019-02-21T01:23:57.379Z,9.08
2019-02-21T01:26:25.839Z,9.09
2019-02-21T01:28:54.386Z,9.11
2019-02-21T01:31:22.858Z,9.13
2019-02-21T01:33:51.322Z,9.14
2019-02-21T01:36:19.787Z,9.17
2019-02-21T01:38:48.322Z,9.18
2019-02-21T01:41:16.737Z,9.20
2019-02-21T01:43:45.244Z,9.20
2019-02-21T01:46:13.651Z,9.20
2019-02-21T01:48:42.282Z,9.20
2019-02-21T01:51:10.727Z,9.21
2019-02-21T01:53:39.293Z,9.22
2019-02-21T01:56:08.081Z,9.22
2019-02-21T01:58:36.743Z,9.22
2019-02-21T02:01:08.642Z,9.24
2019-02-21T02:03:35.623Z,9.27
2019-02-21T02:06:04.057Z,9.27
2019-02-21T02:08:32.506Z,9.25
2019-02-21T02:11:01.224Z,9.26
2019-02-21T02:13:29.700Z,9.26
2019-02-21T02:15:58.120Z,9.25
2019-02-21T02:18:26.563Z,9.26
2019-02-21T02:20:55.002Z,9.27
2019-02-21T02:23:23.643Z,9.26
2019-02-21T02:25:52.433Z,9.26
2019-02-21T02:28:20.853Z,9.26
2019-02-21T02:30:49.343Z,9.29
2019-02-21T02:33:17.872Z,9.33
2019-02-21T02:35:46.358Z,9.36
2019-02-21T02:38:14.814Z,9.38
2019-02-21T02:40:43.261Z,9.38
2019-02-21T02:43:11.800Z,9.37
2019-02-21T02:45:40.272Z,9.37
2019-02-21T02:48:08.796Z,9.38
2019-02-21T02:50:37.337Z,9.39
2019-02-21T02:53:05.716Z,9.34
2019-02-21T02:55:34.865Z,9.33
2019-02-21T02:58:06.383Z,9.35
2019-02-21T03:00:34.558Z,9.37
2019-02-21T03:03:03.069Z,9.38
2019-02-21T03:05:31.603Z,9.38
2019-02-21T03:08:00.093Z,9.36
2019-02-21T03:10:28.587Z,9.33
2019-02-21T03:12:57.119Z,9.30
2019-02-21T03:15:25.551Z,9.27
2019-02-21T03:17:54.008Z,9.26
2019-02-21T03:20:22.463Z,9.25
2019-02-21T03:22:50.917Z,9.25
2019-02-21T03:25:19.377Z,9.24
2019-02-21T03:27:47.821Z,9.25
2019-02-21T03:30:16.255Z,9.24
2019-02-21T03:32:44.795Z,9.25
2019-02-21T03:35:13.348Z,9.25
2019-02-21T03:37:41.794Z,9.22
2019-02-21T03:40:11.103Z,9.22
2019-02-21T03:42:39.573Z,9.19
2019-02-21T03:45:13.661Z,9.17
2019-02-21T03:47:42.133Z,9.17
2019-02-21T03:50:12.008Z,9.17
2019-02-21T03:52:40.464Z,9.17
2019-02-21T03:55:09.169Z,9.15
2019-02-21T03:57:37.736Z,9.13
2019-02-21T04:00:11.109Z,9.08
2019-02-21T04:02:39.661Z,9.09
2019-02-21T04:05:09.096Z,9.10
2019-02-21T04:07:37.703Z,9.12
2019-02-21T04:10:08.246Z,9.12
2019-02-21T04:12:36.733Z,9.13
2019-02-21T04:15:08.094Z,9.16
2019-02-21T04:17:36.527Z,9.17
2019-02-21T04:20:06.842Z,9.18
2019-02-21T04:22:35.337Z,9.20
2019-02-21T04:25:04.080Z,9.21
2019-02-21T04:27:32.539Z,9.07
2019-02-21T04:30:01.078Z,9.24
2019-02-21T04:32:29.651Z,9.28
2019-02-21T04:34:58.320Z,9.30
2019-02-21T04:37:26.747Z,9.31
2019-02-21T04:39:55.230Z,9.31
2019-02-21T04:42:23.686Z,9.31
2019-02-21T04:44:52.188Z,9.29
2019-02-21T04:47:20.757Z,9.29
2019-02-21T04:49:49.233Z,9.28
2019-02-21T04:52:17.701Z,9.27
2019-02-21T04:54:46.138Z,9.28
2019-02-21T04:57:14.735Z,9.27
2019-02-21T04:59:43.162Z,9.28
2019-02-21T05:02:11.625Z,9.24
2019-02-21T05:04:40.064Z,9.22
2019-02-21T05:07:08.611Z,9.21
2019-02-21T05:09:37.087Z,9.18
2019-02-21T05:12:05.521Z,9.20
2019-02-21T05:14:34.031Z,9.20
2019-02-21T05:17:02.773Z,9.22
2019-02-21T05:19:31.198Z,9.23
2019-02-21T05:21:59.695Z,9.21
2019-02-21T05:24:28.140Z,9.19
2019-02-21T05:26:58.241Z,9.19
2019-02-21T05:29:26.697Z,9.19
2019-02-21T05:32:02.567Z,9.18
2019-02-21T05:34:32.719Z,9.17
2019-02-21T05:37:02.800Z,9.18
2019-02-21T05:39:39.120Z,9.18
2019-02-21T05:42:12.206Z,9.17
2019-02-21T05:44:42.336Z,9.19
2019-02-21T05:47:12.483Z,9.17
2019-02-21T05:49:45.497Z,9.13
2019-02-21T05:52:30.993Z,9.08
2019-02-21T05:55:01.128Z,9.07
2019-02-21T05:57:36.904Z,9.04
2019-02-21T06:00:25.726Z,8.98
2019-02-21T06:03:05.302Z,8.98
2019-02-21T06:05:35.384Z,8.97
2019-02-21T06:08:14.403Z,8.96
2019-02-21T06:10:53.291Z,8.94
2019-02-21T06:13:39.959Z,8.94
2019-02-21T06:16:19.280Z,8.93
2019-02-21T06:18:55.307Z,8.92
2019-02-21T06:21:41.138Z,8.91
2019-02-21T06:24:17.794Z,8.88
2019-02-21T06:26:50.528Z,8.89
2019-02-21T06:29:22.443Z,8.92
2019-02-21T06:31:50.810Z,8.91
2019-02-21T06:34:19.301Z,8.90
2019-02-21T06:36:47.967Z,8.87
2019-02-21T06:39:16.597Z,8.86
2019-02-21T06:41:45.037Z,8.87
2019-02-21T06:44:13.472Z,8.84
2019-02-21T06:46:41.927Z,8.81
2019-02-21T06:49:10.425Z,8.79
2019-02-21T06:51:39.002Z,8.78
2019-02-21T06:54:07.443Z,8.78
2019-02-21T06:56:35.898Z,8.80
2019-02-21T06:59:04.375Z,8.82
2019-02-21T07:01:32.936Z,8.83
2019-02-21T07:04:01.988Z,8.86
2019-02-21T07:06:32.233Z,8.88
2019-02-21T07:09:00.675Z,8.89
2019-02-21T07:11:29.290Z,8.84
2019-02-21T07:13:57.804Z,8.78
2019-02-21T07:16:26.393Z,8.73
2019-02-21T07:18:54.927Z,8.76
2019-02-21T07:21:23.956Z,8.79
2019-02-21T07:23:52.558Z,8.80
2019-02-21T07:26:20.996Z,8.81
2019-02-21T07:28:49.516Z,8.86
2019-02-21T07:31:28.207Z,8.89
2019-02-21T07:33:48.426Z,8.96
2019-02-21T07:36:16.929Z,9.03
2019-02-21T07:38:45.377Z,9.12
2019-02-21T07:41:13.984Z,9.20
2019-02-21T07:43:42.779Z,9.29
2019-02-21T07:46:11.223Z,9.39
2019-02-21T07:48:39.745Z,9.48
2019-02-21T07:51:08.248Z,9.53
2019-02-21T07:53:36.945Z,9.60
2019-02-21T07:56:05.407Z,9.65
2019-02-21T07:58:33.837Z,9.67
2019-02-21T08:01:02.307Z,9.73
2019-02-21T08:03:43.430Z,9.76
2019-02-21T08:06:01.090Z,9.80
2019-02-21T08:08:32.269Z,9.85
2019-02-21T08:10:59.708Z,9.90
2019-02-21T08:13:28.288Z,9.98
2019-02-21T08:15:56.779Z,10.05
2019-02-21T08:18:25.243Z,10.09
2019-02-21T08:20:53.688Z,10.02
2019-02-21T08:23:22.147Z,9.94
2019-02-21T08:25:50.584Z,9.93
2019-02-21T08:28:19.083Z,9.92
2019-02-21T08:30:47.568Z,9.93
2019-02-21T08:33:17.814Z,9.92
2019-02-21T08:35:46.291Z,9.89
2019-02-21T08:38:14.737Z,9.88
2019-02-21T08:40:43.174Z,9.94
2019-02-21T08:43:11.618Z,9.98
2019-02-21T08:45:40.129Z,10.04
2019-02-21T08:48:08.629Z,10.06
2019-02-21T08:50:37.094Z,10.09
2019-02-21T08:53:05.550Z,10.06
2019-02-21T08:55:34.105Z,10.05
2019-02-21T08:58:02.596Z,10.08
2019-02-21T09:00:31.746Z,10.22
2019-02-21T09:03:00.452Z,10.28
2019-02-21T09:05:29.143Z,10.35
2019-02-21T09:07:57.629Z,10.39
2019-02-21T09:10:27.723Z,10.40
2019-02-21T09:12:56.460Z,10.42
2019-02-21T09:15:24.928Z,10.36
2019-02-21T09:17:54.303Z,10.33
2019-02-21T09:20:23.046Z,10.36
2019-02-21T09:22:51.500Z,10.39
2019-02-21T09:25:20.017Z,10.42
2019-02-21T09:27:48.553Z,10.43
2019-02-21T09:30:18.530Z,10.46
2019-02-21T09:32:47.150Z,10.50
2019-02-21T09:35:15.753Z,10.51
2019-02-21T09:37:44.218Z,10.51
2019-02-21T09:40:14.422Z,10.60
2019-02-21T09:42:42.934Z,10.71
2019-02-21T09:45:18.817Z,10.76
2019-02-21T09:47:47.350Z,10.75
2019-02-21T09:50:15.817Z,10.75
2019-02-21T09:52:44.356Z,10.76
2019-02-21T09:55:15.911Z,10.82
2019-02-21T09:57:44.455Z,10.83
2019-02-21T10:00:22.743Z,10.69
2019-02-21T10:02:54.239Z,10.64
2019-02-21T10:05:21.652Z,10.58
2019-02-21T10:07:50.118Z,10.59
2019-02-21T10:10:21.485Z,10.69
2019-02-21T10:12:49.954Z,10.85
2019-02-21T10:15:18.399Z,10.93
2019-02-21T10:17:46.870Z,10.97
2019-02-21T10:20:17.451Z,10.98
2019-02-21T10:22:46.250Z,11.04
2019-02-21T10:25:22.964Z,11.04
2019-02-21T10:27:50.467Z,11.12
2019-02-21T10:30:21.000Z,11.22
2019-02-21T10:32:49.480Z,11.38
2019-02-21T10:35:17.921Z,11.51
2019-02-21T10:37:46.514Z,11.60
2019-02-21T10:40:17.894Z,11.52
2019-02-21T10:42:49.202Z,11.53
2019-02-21T10:45:22.617Z,11.51
2019-02-21T10:47:51.255Z,11.59
2019-02-21T10:50:21.474Z,11.60
2019-02-21T10:52:50.599Z,11.58
2019-02-21T10:55:19.617Z,11.57
2019-02-21T10:57:48.262Z,11.59
2019-02-21T11:00:22.560Z,11.65
2019-02-21T11:02:51.146Z,11.69
2019-02-21T11:05:19.723Z,11.68
2019-02-21T11:07:48.109Z,11.78
2019-02-21T11:10:19.727Z,11.81
2019-02-21T11:12:48.225Z,11.89
2019-02-21T11:15:19.123Z,11.92
2019-02-21T11:17:47.624Z,12.06
2019-02-21T11:20:18.358Z,12.09
2019-02-21T11:22:46.817Z,12.00
2019-02-21T11:25:15.423Z,11.83
2019-02-21T11:27:44.258Z,11.68
2019-02-21T11:30:15.736Z,11.54
2019-02-21T11:32:44.263Z,11.44
2019-02-21T11:35:13.648Z,11.36
2019-02-21T11:37:46.771Z,11.33
2019-02-21T11:40:17.600Z,11.34
2019-02-21T11:42:46.644Z,11.35
2019-02-21T11:45:19.731Z,11.33
2019-02-21T11:47:48.172Z,11.30
2019-02-21T11:50:17.889Z,11.25
2019-02-21T11:52:46.500Z,11.31
2019-02-21T11:55:18.017Z,11.47
2019-02-21T11:57:46.451Z,11.56
2019-02-21T12:00:17.693Z,11.71
2019-02-21T12:02:46.222Z,11.84
2019-02-21T12:05:17.865Z,11.83
2019-02-21T12:07:45.261Z,11.82
2019-02-21T12:10:14.085Z,11.85
2019-02-21T12:12:42.692Z,11.86
2019-02-21T12:15:12.885Z,11.90
2019-02-21T12:17:42.749Z,11.93
2019-02-21T12:20:16.779Z,11.94
2019-02-21T12:22:45.240Z,11.98
2019-02-21T12:25:16.655Z,11.93
2019-02-21T12:27:45.243Z,11.88
2019-02-21T12:30:16.281Z,11.96
2019-02-21T12:32:44.716Z,12.14
2019-02-21T12:35:13.244Z,12.31
2019-02-21T12:37:41.689Z,12.42
2019-02-21T12:40:15.896Z,12.33
2019-02-21T12:42:44.723Z,12.21
2019-02-21T12:45:15.510Z,12.21
2019-02-21T12:47:50.979Z,12.30
2019-02-21T12:50:14.924Z,12.29
2019-02-21T12:52:43.464Z,12.26
2019-02-21T12:55:12.452Z,12.13
2019-02-21T12:57:41.135Z,12.32
2019-02-21T13:00:12.687Z,12.31
2019-02-21T13:02:41.146Z,12.25
2019-02-21T13:05:09.765Z,12.21
2019-02-21T13:07:38.281Z,12.25
2019-02-21T13:10:12.170Z,12.27
2019-02-21T13:12:40.679Z,12.30
2019-02-21T13:15:11.668Z,12.28
2019-02-21T13:17:40.213Z,12.26
2019-02-21T13:20:12.023Z,12.22
2019-02-21T13:22:40.410Z,12.18
2019-02-21T13:25:14.916Z,12.20
2019-02-21T13:27:43.105Z,12.21
2019-02-21T13:30:18.854Z,12.24
2019-02-21T13:32:47.392Z,12.26
2019-02-21T13:35:15.854Z,12.20
2019-02-21T13:37:44.319Z,12.46
2019-02-21T13:40:21.141Z,12.48
2019-02-21T13:42:49.193Z,12.37
2019-02-21T13:45:18.318Z,12.24
2019-02-21T13:47:46.779Z,12.16
2019-02-21T13:50:19.369Z,12.12
2019-02-21T13:52:48.087Z,12.16
2019-02-21T13:55:16.611Z,12.14
2019-02-21T13:57:45.129Z,12.07
2019-02-21T14:00:21.466Z,12.02
2019-02-21T14:02:49.939Z,12.07
2019-02-21T14:05:18.419Z,12.10
2019-02-21T14:07:46.912Z,12.19
2019-02-21T14:10:15.810Z,12.30
2019-02-21T14:12:44.642Z,12.34
2019-02-21T14:15:18.476Z,12.29
2019-02-21T14:17:47.066Z,12.22
2019-02-21T14:20:15.683Z,12.24
2019-02-21T14:22:44.808Z,12.31
2019-02-21T14:25:13.345Z,12.36
2019-02-21T14:27:41.818Z,12.36
2019-02-21T14:30:15.332Z,12.28
2019-02-21T14:32:43.795Z,12.21
2019-02-21T14:35:13.211Z,12.13
2019-02-21T14:37:41.620Z,12.14
2019-02-21T14:40:12.013Z,12.05
2019-02-21T14:42:40.695Z,11.98
2019-02-21T14:45:24.019Z,11.92
2019-02-21T14:47:52.447Z,11.79
2019-02-21T14:50:20.892Z,11.72
2019-02-21T14:52:49.383Z,11.72
2019-02-21T14:55:18.542Z,11.61
2019-02-21T14:57:47.067Z,11.51
2019-02-21T15:00:29.048Z,11.51
2019-02-21T15:02:57.982Z,11.46
2019-02-21T15:05:26.673Z,11.39
2019-02-21T15:07:55.461Z,11.39
2019-02-21T15:10:24.345Z,11.43
2019-02-21T15:12:59.172Z,11.45
2019-02-21T15:15:28.371Z,11.42
2019-02-21T15:18:06.825Z,11.34
2019-02-21T15:20:36.379Z,11.34
2019-02-21T15:22:58.075Z,11.35
2019-02-21T15:25:26.554Z,11.37
2019-02-21T15:27:55.081Z,11.41
2019-02-21T15:30:24.724Z,11.44
2019-02-21T15:32:53.199Z,11.43
2019-02-21T15:35:21.645Z,11.41
2019-02-21T15:37:50.164Z,11.29
2019-02-21T15:40:18.643Z,11.07
2019-02-21T15:42:47.120Z,10.93
2019-02-21T15:45:23.556Z,10.89
2019-02-21T15:47:51.268Z,10.89
2019-02-21T15:50:20.402Z,10.93
2019-02-21T15:52:49.133Z,10.92
2019-02-21T15:55:19.703Z,10.93
2019-02-21T15:57:48.166Z,10.92
2019-02-21T16:00:18.592Z,10.92
2019-02-21T16:02:47.057Z,10.92
2019-02-21T16:05:15.556Z,10.90
2019-02-21T16:07:44.078Z,10.83
2019-02-21T16:10:20.587Z,10.78
2019-02-21T16:12:55.959Z,10.73
2019-02-21T16:15:21.643Z,10.67
2019-02-21T16:17:50.227Z,10.64
2019-02-21T16:20:19.947Z,10.59
2019-02-21T16:22:48.450Z,10.54
2019-02-21T16:25:19.652Z,10.49
2019-02-21T16:27:48.168Z,10.42
2019-02-21T16:30:16.630Z,10.42
2019-02-21T16:32:45.069Z,10.44
2019-02-21T16:35:14.752Z,10.41
2019-02-21T16:37:43.299Z,10.35
2019-02-21T16:40:17.249Z,10.36
2019-02-21T16:42:45.954Z,10.35
2019-02-21T16:45:20.375Z,10.36
2019-02-21T16:47:48.840Z,10.39
2019-02-21T16:50:29.353Z,10.36
2019-02-21T16:52:50.450Z,10.27
2019-02-21T16:55:21.361Z,10.24
2019-02-21T16:57:49.797Z,10.20
2019-02-21T17:00:22.421Z,10.09
2019-02-21T17:02:51.086Z,10.06
2019-02-21T17:05:19.866Z,10.04
2019-02-21T17:07:48.343Z,10.02
2019-02-21T17:10:17.270Z,10.03
2019-02-21T17:12:45.797Z,10.07
2019-02-21T17:15:18.944Z,10.11
2019-02-21T17:17:47.445Z,10.12
2019-02-21T17:20:26.135Z,10.13
2019-02-21T17:22:54.610Z,10.11
2019-02-21T17:25:23.047Z,10.14
2019-02-21T17:27:51.711Z,10.13
2019-02-21T17:30:20.805Z,10.11
2019-02-21T17:32:49.361Z,10.05
2019-02-21T17:35:17.813Z,9.95
2019-02-21T17:37:46.280Z,9.91
2019-02-21T17:40:23.752Z,9.85
2019-02-21T17:42:52.201Z,9.84
2019-02-21T17:45:20.680Z,9.88
2019-02-21T17:47:49.269Z,9.88
2019-02-21T17:50:18.733Z,9.87
2019-02-21T17:52:47.190Z,9.86
2019-02-21T17:55:16.588Z,9.86
2019-02-21T17:57:45.137Z,9.85
2019-02-21T18:00:21.096Z,9.85
2019-02-21T18:02:49.730Z,9.80
2019-02-21T18:05:18.569Z,9.75
2019-02-21T18:07:47.051Z,9.74
2019-02-21T18:10:16.515Z,9.75
2019-02-21T18:12:44.955Z,9.74
2019-02-21T18:15:15.611Z,9.73
2019-02-21T18:17:44.061Z,9.73
2019-02-21T18:20:16.403Z,9.75
2019-02-21T18:22:44.909Z,9.77
2019-02-21T18:25:21.953Z,9.77
2019-02-21T18:27:50.894Z,9.75
2019-02-21T18:30:19.358Z,9.77
2019-02-21T18:32:47.891Z,9.77
2019-02-21T18:35:16.476Z,9.80
2019-02-21T18:37:47.823Z,9.80
2019-02-21T18:40:26.000Z,9.83
2019-02-21T18:42:54.446Z,9.82
2019-02-21T18:45:23.013Z,9.81
2019-02-21T18:47:51.542Z,9.84
2019-02-21T18:50:19.979Z,9.84
2019-02-21T18:52:48.439Z,9.84
2019-02-21T18:55:17.033Z,9.82
2019-02-21T18:57:45.496Z,9.80
2019-02-21T19:00:20.269Z,9.79
2019-02-21T19:02:48.763Z,9.79
2019-02-21T19:05:17.280Z,9.75
2019-02-21T19:07:45.989Z,9.74
2019-02-21T19:10:19.064Z,9.76
2019-02-21T19:12:47.506Z,9.75
2019-02-21T19:15:18.409Z,9.74
2019-02-21T19:17:46.872Z,9.76
2019-02-21T19:20:18.195Z,9.76
2019-02-21T19:22:46.770Z,9.76
2019-02-21T19:25:15.499Z,9.80
2019-02-21T19:27:43.981Z,9.79
2019-02-21T19:30:34.187Z,9.76
2019-02-21T19:33:02.675Z,9.72
2019-02-21T19:35:32.653Z,9.70
2019-02-21T19:38:09.765Z,9.69
2019-02-21T19:40:33.218Z,9.69
2019-02-21T19:43:01.870Z,9.68
2019-02-21T19:45:30.531Z,9.68
2019-02-21T19:47:59.372Z,9.72
2019-02-21T19:50:29.332Z,9.72
2019-02-21T19:52:57.809Z,9.74
2019-02-21T19:55:26.267Z,9.74
2019-02-21T19:57:54.788Z,9.74
2019-02-21T20:00:29.870Z,9.78
2019-02-21T20:02:58.328Z,9.77
2019-02-21T20:05:27.706Z,9.78
2019-02-21T20:07:56.228Z,9.77
2019-02-21T20:10:25.552Z,9.81
2019-02-21T20:12:54.787Z,9.87
2019-02-21T20:15:23.262Z,9.87
2019-02-21T20:17:51.731Z,9.83
2019-02-21T20:20:22.731Z,9.81
2019-02-21T20:22:51.279Z,9.83
2019-02-21T20:25:19.759Z,9.80
2019-02-21T20:27:48.260Z,9.79
2019-02-21T20:30:19.262Z,9.82
2019-02-21T20:32:47.777Z,9.83
2019-02-21T20:35:16.279Z,9.85
2019-02-21T20:37:44.743Z,9.86
2019-02-21T20:40:13.832Z,9.89
2019-02-21T20:42:42.368Z,9.92
2019-02-21T20:45:12.812Z,9.95
2019-02-21T20:47:42.816Z,9.95
2019-02-21T20:50:13.168Z,9.96
2019-02-21T20:52:41.694Z,9.98
2019-02-21T20:55:13.126Z,9.99
2019-02-21T20:57:41.659Z,9.99
2019-02-21T21:00:13.144Z,9.94
2019-02-21T21:02:41.869Z,9.93
2019-02-21T21:05:10.558Z,9.90
2019-02-21T21:07:39.025Z,9.87
2019-02-21T21:10:11.476Z,9.85
2019-02-21T21:12:39.893Z,9.87
2019-02-21T21:15:10.298Z,9.89
2019-02-21T21:17:38.742Z,9.90
2019-02-21T21:20:16.790Z,9.96
2019-02-21T21:22:45.208Z,9.97
2019-02-21T21:25:18.230Z,10.00
2019-02-21T21:27:46.690Z,10.00
2019-02-21T21:30:18.693Z,10.02
2019-02-21T21:32:47.441Z,10.06
2019-02-21T21:35:15.887Z,10.06
2019-02-21T21:37:44.421Z,10.08
2019-02-21T21:40:15.946Z,10.09
2019-02-21T21:42:44.453Z,10.07
2019-02-21T21:45:17.557Z,10.06
2019-02-21T21:47:46.062Z,10.04
2019-02-21T21:50:17.704Z,10.02
2019-02-21T21:52:46.147Z,10.02
2019-02-21T21:55:15.013Z,10.04
2019-02-21T21:57:43.683Z,10.04
2019-02-21T22:00:21.147Z,10.05
2019-02-21T22:02:49.588Z,10.08
2019-02-21T22:05:18.240Z,10.07
2019-02-21T22:07:49.149Z,10.07
2019-02-21T22:10:16.946Z,10.06
2019-02-21T22:12:45.396Z,10.03
2019-02-21T22:15:19.172Z,10.03
2019-02-21T22:17:47.640Z,10.02
2019-02-21T22:20:16.309Z,10.00
2019-02-21T22:22:44.770Z,9.97
2019-02-21T22:25:14.245Z,9.92
2019-02-21T22:27:42.885Z,9.90
2019-02-21T22:30:14.281Z,9.88
2019-02-21T22:32:42.731Z,9.85
2019-02-21T22:35:11.210Z,9.85
2019-02-21T22:37:39.654Z,9.83
2019-02-21T22:40:10.528Z,9.82
2019-02-21T22:42:38.991Z,9.83
2019-02-21T22:45:09.182Z,9.85
2019-02-21T22:47:37.661Z,9.88
2019-02-21T22:50:16.480Z,9.84
2019-02-21T22:52:44.956Z,9.84
2019-02-21T22:55:13.827Z,9.84
2019-02-21T22:57:42.338Z,9.83
2019-02-21T23:00:54.630Z,9.84
2019-02-21T23:03:25.782Z,9.83
2019-02-21T23:06:29.112Z,9.83
2019-02-21T23:08:57.681Z,9.80
2019-02-21T23:11:26.275Z,9.78
2019-02-21T23:13:55.832Z,9.80
2019-02-21T23:16:24.448Z,9.82
2019-02-21T23:18:52.979Z,9.85
2019-02-21T23:21:21.513Z,9.82
2019-02-21T23:23:49.994Z,9.79
2019-02-21T23:26:18.525Z,9.73
2019-02-21T23:28:47.003Z,9.72
2019-02-21T23:31:15.444Z,9.73
2019-02-21T23:33:57.480Z,9.76
2019-02-21T23:36:25.948Z,9.79
2019-02-21T23:38:54.391Z,9.83
2019-02-21T23:41:22.847Z,9.85
2019-02-21T23:43:51.286Z,9.86
2019-02-21T23:46:19.858Z,9.87
2019-02-21T23:48:48.392Z,9.86
2019-02-21T23:51:16.832Z,9.84
2019-02-21T23:53:45.269Z,9.86
2019-02-21T23:56:13.737Z,9.88
2019-02-21T23:58:43.033Z,9.83
